sensor_id;sensor_type;location;lat;lon;timestamp;temperature;humidity
24049;DHT22;12250;50.956;4.746;2022-09-20T00:00:46;12.90;99.90
24049;DHT22;12250;50.956;4.746;2022-09-20T00:03:13;12.90;99.90
24049;DHT22;12250;50.956;4.746;2022-09-20T00:05:40;12.80;99.90
24049;DHT22;12250;50.956;4.746;2022-09-20T00:08:11;12.70;99.90
24049;DHT22;12250;50.956;4.746;2022-09-20T00:10:37;12.60;99.90
24049;DHT22;12250;50.956;4.746;2022-09-20T00:13:06;12.50;99.90
24049;DHT22;12250;50.956;4.746;2022-09-20T00:15:32;12.30;99.90
24049;DHT22;12250;50.956;4.746;2022-09-20T00:17:59;12.20;99.90
24049;DHT22;12250;50.956;4.746;2022-09-20T00:20:25;12.00;99.90
24049;DHT22;12250;50.956;4.746;2022-09-20T00:22:51;11.90;99.90
24049;DHT22;12250;50.956;4.746;2022-09-20T00:25:18;11.80;99.90
24049;DHT22;12250;50.956;4.746;2022-09-20T00:27:44;11.80;99.90
24049;DHT22;12250;50.956;4.746;2022-09-20T00:30:12;11.60;99.90
24049;DHT22;12250;50.956;4.746;2022-09-20T00:32:38;11.50;99.90
24049;DHT22;12250;50.956;4.746;2022-09-20T00:35:05;11.40;99.90
24049;DHT22;12250;50.956;4.746;2022-09-20T00:37:41;11.40;99.90
24049;DHT22;12250;50.956;4.746;2022-09-20T00:40:19;11.30;99.90
24049;DHT22;12250;50.956;4.746;2022-09-20T00:42:46;11.30;99.90
24049;DHT22;12250;50.956;4.746;2022-09-20T00:45:20;11.30;99.90
24049;DHT22;12250;50.956;4.746;2022-09-20T00:55:48;11.30;99.90
24049;DHT22;12250;50.956;4.746;2022-09-20T00:58:15;11.40;99.90
24049;DHT22;12250;50.956;4.746;2022-09-20T01:00:44;11.40;99.90
24049;DHT22;12250;50.956;4.746;2022-09-20T01:03:12;11.40;99.90
24049;DHT22;12250;50.956;4.746;2022-09-20T01:05:39;11.50;99.90
24049;DHT22;12250;50.956;4.746;2022-09-20T01:08:05;11.50;99.90
24049;DHT22;12250;50.956;4.746;2022-09-20T01:10:32;11.60;99.90
24049;DHT22;12250;50.956;4.746;2022-09-20T01:12:58;11.60;99.90
24049;DHT22;12250;50.956;4.746;2022-09-20T01:15:24;11.70;99.90
24049;DHT22;12250;50.956;4.746;2022-09-20T01:17:54;11.70;99.90
24049;DHT22;12250;50.956;4.746;2022-09-20T01:20:28;11.70;99.90
24049;DHT22;12250;50.956;4.746;2022-09-20T01:28:32;11.80;99.90
24049;DHT22;12250;50.956;4.746;2022-09-20T01:31:10;11.70;99.90
24049;DHT22;12250;50.956;4.746;2022-09-20T01:33:53;11.70;99.90
24049;DHT22;12250;50.956;4.746;2022-09-20T01:39:32;11.80;99.90
24049;DHT22;12250;50.956;4.746;2022-09-20T01:42:09;11.80;99.90
24049;DHT22;12250;50.956;4.746;2022-09-20T01:45:06;11.80;99.90
24049;DHT22;12250;50.956;4.746;2022-09-20T01:47:40;11.80;99.90
24049;DHT22;12250;50.956;4.746;2022-09-20T01:50:34;11.80;99.90
24049;DHT22;12250;50.956;4.746;2022-09-20T01:56:03;11.70;99.90
24049;DHT22;12250;50.956;4.746;2022-09-20T02:01:28;11.70;99.90
24049;DHT22;12250;50.956;4.746;2022-09-20T02:10:09;11.80;99.90
24049;DHT22;12250;50.956;4.746;2022-09-20T02:18:19;11.80;99.90
24049;DHT22;12250;50.956;4.746;2022-09-20T02:21:03;11.90;99.90
24049;DHT22;12250;50.956;4.746;2022-09-20T02:23:53;12.00;99.90
24049;DHT22;12250;50.956;4.746;2022-09-20T02:26:36;12.10;99.90
24049;DHT22;12250;50.956;4.746;2022-09-20T02:49:32;12.30;99.90
24049;DHT22;12250;50.956;4.746;2022-09-20T02:52:19;12.30;99.90
24049;DHT22;12250;50.956;4.746;2022-09-20T02:54:55;12.30;99.90
24049;DHT22;12250;50.956;4.746;2022-09-20T02:57:35;12.20;99.90
24049;DHT22;12250;50.956;4.746;2022-09-20T03:00:09;12.20;99.90
24049;DHT22;12250;50.956;4.746;2022-09-20T03:08:05;12.20;99.90
24049;DHT22;12250;50.956;4.746;2022-09-20T03:24:49;12.20;99.90
24049;DHT22;12250;50.956;4.746;2022-09-20T03:27:30;12.20;99.90
24049;DHT22;12250;50.956;4.746;2022-09-20T03:33:10;12.30;99.90
24049;DHT22;12250;50.956;4.746;2022-09-20T03:44:38;12.30;99.90
24049;DHT22;12250;50.956;4.746;2022-09-20T03:49:56;12.30;99.90
24049;DHT22;12250;50.956;4.746;2022-09-20T04:04:15;12.30;99.90
24049;DHT22;12250;50.956;4.746;2022-09-20T04:06:43;12.30;99.90
24049;DHT22;12250;50.956;4.746;2022-09-20T04:12:24;12.30;99.90
24049;DHT22;12250;50.956;4.746;2022-09-20T04:18:16;12.30;99.90
24049;DHT22;12250;50.956;4.746;2022-09-20T04:20:51;12.30;99.90
24049;DHT22;12250;50.956;4.746;2022-09-20T04:23:33;12.30;99.90
24049;DHT22;12250;50.956;4.746;2022-09-20T04:26:01;12.20;99.90
24049;DHT22;12250;50.956;4.746;2022-09-20T04:28:36;12.20;99.90
24049;DHT22;12250;50.956;4.746;2022-09-20T04:31:28;12.30;99.90
24049;DHT22;12250;50.956;4.746;2022-09-20T04:33:58;12.30;99.90
24049;DHT22;12250;50.956;4.746;2022-09-20T04:39:31;12.20;99.90
24049;DHT22;12250;50.956;4.746;2022-09-20T04:50:25;12.00;99.90
24049;DHT22;12250;50.956;4.746;2022-09-20T05:05:19;12.10;99.90
24049;DHT22;12250;50.956;4.746;2022-09-20T05:29:06;11.40;99.90
24049;DHT22;12250;50.956;4.746;2022-09-20T05:31:55;11.40;99.90
24049;DHT22;12250;50.956;4.746;2022-09-20T05:34:51;11.30;99.90
24049;DHT22;12250;50.956;4.746;2022-09-20T05:42:54;11.00;99.90
24049;DHT22;12250;50.956;4.746;2022-09-20T05:45:43;10.90;99.90
24049;DHT22;12250;50.956;4.746;2022-09-20T05:48:16;10.80;99.90
24049;DHT22;12250;50.956;4.746;2022-09-20T05:53:43;10.90;99.90
24049;DHT22;12250;50.956;4.746;2022-09-20T06:05:07;11.20;99.90
24049;DHT22;12250;50.956;4.746;2022-09-20T06:07:49;11.10;99.90
24049;DHT22;12250;50.956;4.746;2022-09-20T06:18:18;11.20;99.90
24049;DHT22;12250;50.956;4.746;2022-09-20T06:23:41;11.40;99.90
24049;DHT22;12250;50.956;4.746;2022-09-20T06:26:16;11.40;99.90
24049;DHT22;12250;50.956;4.746;2022-09-20T06:28:47;11.50;99.90
24049;DHT22;12250;50.956;4.746;2022-09-20T06:31:14;11.50;99.90
24049;DHT22;12250;50.956;4.746;2022-09-20T06:36:31;11.40;99.90
24049;DHT22;12250;50.956;4.746;2022-09-20T06:42:12;11.30;99.90
24049;DHT22;12250;50.956;4.746;2022-09-20T06:44:37;11.40;99.90
24049;DHT22;12250;50.956;4.746;2022-09-20T06:47:11;11.40;99.90
24049;DHT22;12250;50.956;4.746;2022-09-20T06:49:37;11.50;99.90
24049;DHT22;12250;50.956;4.746;2022-09-20T06:52:07;11.50;99.90
24049;DHT22;12250;50.956;4.746;2022-09-20T06:54:36;11.60;99.90
24049;DHT22;12250;50.956;4.746;2022-09-20T06:57:04;11.70;99.90
24049;DHT22;12250;50.956;4.746;2022-09-20T06:59:31;11.90;99.90
24049;DHT22;12250;50.956;4.746;2022-09-20T07:01:57;12.10;99.90
24049;DHT22;12250;50.956;4.746;2022-09-20T07:04:23;12.30;99.90
24049;DHT22;12250;50.956;4.746;2022-09-20T07:06:49;12.50;99.90
24049;DHT22;12250;50.956;4.746;2022-09-20T07:09:15;12.80;99.90
24049;DHT22;12250;50.956;4.746;2022-09-20T07:11:42;13.00;99.90
24049;DHT22;12250;50.956;4.746;2022-09-20T07:14:08;13.00;99.90
24049;DHT22;12250;50.956;4.746;2022-09-20T07:16:34;13.00;99.90
24049;DHT22;12250;50.956;4.746;2022-09-20T07:19:00;13.10;99.90
24049;DHT22;12250;50.956;4.746;2022-09-20T07:21:26;13.20;99.90
24049;DHT22;12250;50.956;4.746;2022-09-20T07:23:52;13.20;99.90
24049;DHT22;12250;50.956;4.746;2022-09-20T07:26:24;13.30;99.90
24049;DHT22;12250;50.956;4.746;2022-09-20T07:28:51;13.30;99.90
24049;DHT22;12250;50.956;4.746;2022-09-20T07:31:18;13.30;99.90
24049;DHT22;12250;50.956;4.746;2022-09-20T07:33:44;13.30;99.90
24049;DHT22;12250;50.956;4.746;2022-09-20T07:36:10;13.30;99.90
24049;DHT22;12250;50.956;4.746;2022-09-20T07:38:39;13.20;99.90
24049;DHT22;12250;50.956;4.746;2022-09-20T07:41:07;13.10;99.90
24049;DHT22;12250;50.956;4.746;2022-09-20T07:43:33;13.20;99.90
24049;DHT22;12250;50.956;4.746;2022-09-20T07:45:59;13.20;99.90
24049;DHT22;12250;50.956;4.746;2022-09-20T07:48:34;13.40;99.90
24049;DHT22;12250;50.956;4.746;2022-09-20T07:51:06;13.50;99.90
24049;DHT22;12250;50.956;4.746;2022-09-20T07:53:32;13.60;99.90
24049;DHT22;12250;50.956;4.746;2022-09-20T07:56:03;13.80;99.90
24049;DHT22;12250;50.956;4.746;2022-09-20T07:58:30;14.00;99.90
24049;DHT22;12250;50.956;4.746;2022-09-20T08:00:59;14.10;99.90
24049;DHT22;12250;50.956;4.746;2022-09-20T08:03:25;14.40;99.90
24049;DHT22;12250;50.956;4.746;2022-09-20T08:05:57;14.50;99.90
24049;DHT22;12250;50.956;4.746;2022-09-20T08:08:23;14.70;99.90
24049;DHT22;12250;50.956;4.746;2022-09-20T08:10:49;14.90;99.90
24049;DHT22;12250;50.956;4.746;2022-09-20T08:13:15;15.20;99.90
24049;DHT22;12250;50.956;4.746;2022-09-20T08:15:41;15.30;99.90
24049;DHT22;12250;50.956;4.746;2022-09-20T08:18:08;15.20;99.90
24049;DHT22;12250;50.956;4.746;2022-09-20T08:20:37;15.10;99.90
24049;DHT22;12250;50.956;4.746;2022-09-20T08:23:04;15.20;99.90
24049;DHT22;12250;50.956;4.746;2022-09-20T08:25:31;15.10;99.90
24049;DHT22;12250;50.956;4.746;2022-09-20T08:27:57;15.10;99.90
24049;DHT22;12250;50.956;4.746;2022-09-20T08:30:22;15.10;99.90
24049;DHT22;12250;50.956;4.746;2022-09-20T08:32:49;15.00;99.90
24049;DHT22;12250;50.956;4.746;2022-09-20T08:35:15;15.10;99.90
24049;DHT22;12250;50.956;4.746;2022-09-20T08:37:42;15.20;99.90
24049;DHT22;12250;50.956;4.746;2022-09-20T08:40:14;15.50;99.90
24049;DHT22;12250;50.956;4.746;2022-09-20T08:42:41;15.90;99.90
24049;DHT22;12250;50.956;4.746;2022-09-20T08:45:17;16.30;99.90
24049;DHT22;12250;50.956;4.746;2022-09-20T08:47:54;16.80;99.90
24049;DHT22;12250;50.956;4.746;2022-09-20T08:50:20;17.10;99.90
24049;DHT22;12250;50.956;4.746;2022-09-20T08:52:48;17.60;99.90
24049;DHT22;12250;50.956;4.746;2022-09-20T08:55:20;18.10;99.90
24049;DHT22;12250;50.956;4.746;2022-09-20T08:57:49;18.70;99.90
24049;DHT22;12250;50.956;4.746;2022-09-20T09:00:20;19.10;99.90
24049;DHT22;12250;50.956;4.746;2022-09-20T09:02:49;19.20;99.90
24049;DHT22;12250;50.956;4.746;2022-09-20T09:07:51;18.60;99.90
24049;DHT22;12250;50.956;4.746;2022-09-20T09:10:16;18.50;99.90
24049;DHT22;12250;50.956;4.746;2022-09-20T09:12:42;18.40;99.90
24049;DHT22;12250;50.956;4.746;2022-09-20T09:15:31;18.50;99.90
24049;DHT22;12250;50.956;4.746;2022-09-20T09:17:57;18.70;99.90
24049;DHT22;12250;50.956;4.746;2022-09-20T09:20:23;18.80;99.90
24049;DHT22;12250;50.956;4.746;2022-09-20T09:23:00;18.90;99.90
24049;DHT22;12250;50.956;4.746;2022-09-20T09:25:32;19.10;99.90
24049;DHT22;12250;50.956;4.746;2022-09-20T09:28:12;19.20;99.90
24049;DHT22;12250;50.956;4.746;2022-09-20T09:30:45;19.40;99.90
24049;DHT22;12250;50.956;4.746;2022-09-20T09:38:24;20.40;99.90
24049;DHT22;12250;50.956;4.746;2022-09-20T09:40:51;20.80;99.90
24049;DHT22;12250;50.956;4.746;2022-09-20T09:43:26;21.00;99.90
24049;DHT22;12250;50.956;4.746;2022-09-20T09:45:53;21.30;99.90
24049;DHT22;12250;50.956;4.746;2022-09-20T09:50:48;21.90;99.90
24049;DHT22;12250;50.956;4.746;2022-09-20T09:53:17;22.30;99.90
24049;DHT22;12250;50.956;4.746;2022-09-20T09:58:50;22.70;98.30
24049;DHT22;12250;50.956;4.746;2022-09-20T10:05:05;22.80;97.40
24049;DHT22;12250;50.956;4.746;2022-09-20T10:09:58;23.20;96.20
24049;DHT22;12250;50.956;4.746;2022-09-20T10:12:44;23.10;95.20
24049;DHT22;12250;50.956;4.746;2022-09-20T10:15:29;23.00;94.90
24049;DHT22;12250;50.956;4.746;2022-09-20T10:30:14;21.00;97.30
24049;DHT22;12250;50.956;4.746;2022-09-20T10:33:02;20.70;97.20
24049;DHT22;12250;50.956;4.746;2022-09-20T10:35:35;20.70;97.90
24049;DHT22;12250;50.956;4.746;2022-09-20T10:46:58;21.30;97.60
24049;DHT22;12250;50.956;4.746;2022-09-20T10:49:33;21.60;96.40
24049;DHT22;12250;50.956;4.746;2022-09-20T10:58:08;22.80;95.40
24049;DHT22;12250;50.956;4.746;2022-09-20T11:09:14;23.30;91.00
24049;DHT22;12250;50.956;4.746;2022-09-20T11:11:45;23.40;90.00
24049;DHT22;12250;50.956;4.746;2022-09-20T11:14:37;23.60;91.20
24049;DHT22;12250;50.956;4.746;2022-09-20T11:17:13;23.80;90.20
24049;DHT22;12250;50.956;4.746;2022-09-20T11:22:29;23.80;90.60
24049;DHT22;12250;50.956;4.746;2022-09-20T11:25:05;23.60;90.00
24049;DHT22;12250;50.956;4.746;2022-09-20T11:27:48;23.70;90.70
24049;DHT22;12250;50.956;4.746;2022-09-20T11:30:19;23.90;91.00
24049;DHT22;12250;50.956;4.746;2022-09-20T11:32:50;24.00;89.50
24049;DHT22;12250;50.956;4.746;2022-09-20T11:35:37;23.80;90.00
24049;DHT22;12250;50.956;4.746;2022-09-20T11:40:58;23.60;90.40
24049;DHT22;12250;50.956;4.746;2022-09-20T11:43:27;23.80;87.40
24049;DHT22;12250;50.956;4.746;2022-09-20T11:46:00;23.80;88.40
24049;DHT22;12250;50.956;4.746;2022-09-20T11:48:42;23.70;89.20
24049;DHT22;12250;50.956;4.746;2022-09-20T11:56:54;23.10;85.70
24049;DHT22;12250;50.956;4.746;2022-09-20T11:59:41;23.00;87.00
24049;DHT22;12250;50.956;4.746;2022-09-20T12:02:34;22.90;89.50
24049;DHT22;12250;50.956;4.746;2022-09-20T12:05:03;23.10;90.10
24049;DHT22;12250;50.956;4.746;2022-09-20T12:07:38;23.10;86.50
24049;DHT22;12250;50.956;4.746;2022-09-20T12:10:35;23.20;87.30
24049;DHT22;12250;50.956;4.746;2022-09-20T12:13:07;22.70;85.00
24049;DHT22;12250;50.956;4.746;2022-09-20T12:15:43;22.00;85.10
24049;DHT22;12250;50.956;4.746;2022-09-20T12:21:18;21.70;90.00
24049;DHT22;12250;50.956;4.746;2022-09-20T12:28:49;21.50;87.90
24049;DHT22;12250;50.956;4.746;2022-09-20T12:36:40;20.30;91.30
24049;DHT22;12250;50.956;4.746;2022-09-20T12:41:56;20.00;92.80
24049;DHT22;12250;50.956;4.746;2022-09-20T12:47:03;20.00;92.50
24049;DHT22;12250;50.956;4.746;2022-09-20T13:01:29;21.50;90.10
24049;DHT22;12250;50.956;4.746;2022-09-20T13:03:41;22.00;83.00
24049;DHT22;12250;50.956;4.746;2022-09-20T13:09:11;22.50;79.10
24049;DHT22;12250;50.956;4.746;2022-09-20T13:11:48;22.60;80.90
24049;DHT22;12250;50.956;4.746;2022-09-20T13:14:24;22.70;81.10
24049;DHT22;12250;50.956;4.746;2022-09-20T13:19:23;22.60;81.80
24049;DHT22;12250;50.956;4.746;2022-09-20T13:22:01;22.60;83.80
24049;DHT22;12250;50.956;4.746;2022-09-20T13:24:40;22.90;82.70
24049;DHT22;12250;50.956;4.746;2022-09-20T13:27:10;23.30;81.90
24049;DHT22;12250;50.956;4.746;2022-09-20T13:29:39;23.60;81.50
24049;DHT22;12250;50.956;4.746;2022-09-20T13:32:27;23.40;78.00
24049;DHT22;12250;50.956;4.746;2022-09-20T13:37:55;22.30;78.70
24049;DHT22;12250;50.956;4.746;2022-09-20T13:43:00;21.70;83.10
24049;DHT22;12250;50.956;4.746;2022-09-20T13:45:26;21.40;84.20
24049;DHT22;12250;50.956;4.746;2022-09-20T13:47:54;21.10;84.90
24049;DHT22;12250;50.956;4.746;2022-09-20T13:52:56;20.40;86.80
24049;DHT22;12250;50.956;4.746;2022-09-20T13:55:32;20.20;85.80
24049;DHT22;12250;50.956;4.746;2022-09-20T13:58:01;19.80;87.40
24049;DHT22;12250;50.956;4.746;2022-09-20T14:00:30;20.00;89.30
24049;DHT22;12250;50.956;4.746;2022-09-20T14:02:56;20.50;87.10
24049;DHT22;12250;50.956;4.746;2022-09-20T14:05:27;21.00;85.50
24049;DHT22;12250;50.956;4.746;2022-09-20T14:07:55;21.70;86.00
24049;DHT22;12250;50.956;4.746;2022-09-20T14:10:39;22.20;83.80
24049;DHT22;12250;50.956;4.746;2022-09-20T14:13:10;22.50;82.20
24049;DHT22;12250;50.956;4.746;2022-09-20T14:15:41;22.60;81.40
24049;DHT22;12250;50.956;4.746;2022-09-20T14:18:13;22.50;81.80
24049;DHT22;12250;50.956;4.746;2022-09-20T14:20:42;22.40;82.30
24049;DHT22;12250;50.956;4.746;2022-09-20T14:23:25;22.40;84.00
24049;DHT22;12250;50.956;4.746;2022-09-20T14:28:45;21.60;84.60
24049;DHT22;12250;50.956;4.746;2022-09-20T14:31:21;21.20;87.20
24049;DHT22;12250;50.956;4.746;2022-09-20T14:33:51;20.80;88.00
24049;DHT22;12250;50.956;4.746;2022-09-20T14:36:28;20.30;89.00
24049;DHT22;12250;50.956;4.746;2022-09-20T14:38:57;19.90;90.40
24049;DHT22;12250;50.956;4.746;2022-09-20T14:41:46;19.60;91.00
24049;DHT22;12250;50.956;4.746;2022-09-20T14:44:24;19.40;92.20
24049;DHT22;12250;50.956;4.746;2022-09-20T14:46:51;19.20;92.20
24049;DHT22;12250;50.956;4.746;2022-09-20T14:54:38;18.60;93.70
24049;DHT22;12250;50.956;4.746;2022-09-20T14:57:05;18.60;94.00
24049;DHT22;12250;50.956;4.746;2022-09-20T14:59:41;18.50;94.00
24049;DHT22;12250;50.956;4.746;2022-09-20T15:04:35;18.40;94.50
24049;DHT22;12250;50.956;4.746;2022-09-20T15:07:07;18.40;94.60
24049;DHT22;12250;50.956;4.746;2022-09-20T15:09:35;18.50;94.70
24049;DHT22;12250;50.956;4.746;2022-09-20T15:12:02;18.40;94.60
24049;DHT22;12250;50.956;4.746;2022-09-20T15:14:28;18.40;95.00
24049;DHT22;12250;50.956;4.746;2022-09-20T15:16:54;18.40;95.10
24049;DHT22;12250;50.956;4.746;2022-09-20T15:19:21;18.30;95.20
24049;DHT22;12250;50.956;4.746;2022-09-20T15:21:47;18.20;95.80
24049;DHT22;12250;50.956;4.746;2022-09-20T15:24:12;18.10;95.80
24049;DHT22;12250;50.956;4.746;2022-09-20T15:26:39;17.80;96.40
24049;DHT22;12250;50.956;4.746;2022-09-20T15:29:04;17.50;96.70
24049;DHT22;12250;50.956;4.746;2022-09-20T15:31:30;17.40;98.00
24049;DHT22;12250;50.956;4.746;2022-09-20T15:33:56;17.30;98.70
24049;DHT22;12250;50.956;4.746;2022-09-20T15:36:21;17.10;98.70
24049;DHT22;12250;50.956;4.746;2022-09-20T15:38:47;17.00;99.20
24049;DHT22;12250;50.956;4.746;2022-09-20T15:41:13;16.80;99.90
24049;DHT22;12250;50.956;4.746;2022-09-20T15:43:39;16.60;99.90
24049;DHT22;12250;50.956;4.746;2022-09-20T15:46:21;16.40;99.90
24049;DHT22;12250;50.956;4.746;2022-09-20T15:48:47;16.20;99.90
24049;DHT22;12250;50.956;4.746;2022-09-20T15:51:13;16.10;99.90
24049;DHT22;12250;50.956;4.746;2022-09-20T15:53:42;16.00;99.90
24049;DHT22;12250;50.956;4.746;2022-09-20T15:56:25;15.90;99.90
24049;DHT22;12250;50.956;4.746;2022-09-20T15:58:53;15.80;99.90
24049;DHT22;12250;50.956;4.746;2022-09-20T16:01:28;15.70;99.90
24049;DHT22;12250;50.956;4.746;2022-09-20T16:03:54;15.70;99.90
24049;DHT22;12250;50.956;4.746;2022-09-20T16:06:21;15.60;99.90
24049;DHT22;12250;50.956;4.746;2022-09-20T16:08:48;15.60;99.90
24049;DHT22;12250;50.956;4.746;2022-09-20T16:11:15;15.60;99.90
24049;DHT22;12250;50.956;4.746;2022-09-20T16:13:41;15.60;99.90
24049;DHT22;12250;50.956;4.746;2022-09-20T16:16:09;15.60;99.90
24049;DHT22;12250;50.956;4.746;2022-09-20T16:18:37;15.50;99.90
24049;DHT22;12250;50.956;4.746;2022-09-20T16:21:21;15.30;99.90
24049;DHT22;12250;50.956;4.746;2022-09-20T16:23:53;15.30;99.90
24049;DHT22;12250;50.956;4.746;2022-09-20T16:26:19;15.30;99.90
24049;DHT22;12250;50.956;4.746;2022-09-20T16:28:45;15.20;99.90
24049;DHT22;12250;50.956;4.746;2022-09-20T16:31:31;15.20;99.90
24049;DHT22;12250;50.956;4.746;2022-09-20T16:33:58;15.30;99.90
24049;DHT22;12250;50.956;4.746;2022-09-20T16:36:27;15.30;99.90
24049;DHT22;12250;50.956;4.746;2022-09-20T16:38:53;15.30;99.90
24049;DHT22;12250;50.956;4.746;2022-09-20T16:41:24;15.30;99.90
24049;DHT22;12250;50.956;4.746;2022-09-20T16:43:51;15.20;99.90
24049;DHT22;12250;50.956;4.746;2022-09-20T16:46:21;15.30;99.90
24049;DHT22;12250;50.956;4.746;2022-09-20T16:48:51;15.30;99.90
24049;DHT22;12250;50.956;4.746;2022-09-20T16:51:19;15.20;99.90
24049;DHT22;12250;50.956;4.746;2022-09-20T16:53:45;15.20;99.90
24049;DHT22;12250;50.956;4.746;2022-09-20T16:56:18;15.10;99.90
24049;DHT22;12250;50.956;4.746;2022-09-20T16:58:46;14.90;99.90
24049;DHT22;12250;50.956;4.746;2022-09-20T17:01:12;14.80;99.90
24049;DHT22;12250;50.956;4.746;2022-09-20T17:03:37;14.80;99.90
24049;DHT22;12250;50.956;4.746;2022-09-20T17:06:06;14.70;99.90
24049;DHT22;12250;50.956;4.746;2022-09-20T17:08:33;14.70;99.90
24049;DHT22;12250;50.956;4.746;2022-09-20T17:11:04;14.70;99.90
24049;DHT22;12250;50.956;4.746;2022-09-20T17:13:30;14.70;99.90
24049;DHT22;12250;50.956;4.746;2022-09-20T17:16:00;14.80;99.90
24049;DHT22;12250;50.956;4.746;2022-09-20T17:18:26;14.80;99.90
24049;DHT22;12250;50.956;4.746;2022-09-20T17:20:51;14.90;99.90
24049;DHT22;12250;50.956;4.746;2022-09-20T17:23:17;15.00;99.90
24049;DHT22;12250;50.956;4.746;2022-09-20T17:25:43;14.90;99.90
24049;DHT22;12250;50.956;4.746;2022-09-20T17:28:09;14.90;99.90
24049;DHT22;12250;50.956;4.746;2022-09-20T17:30:35;15.00;99.90
24049;DHT22;12250;50.956;4.746;2022-09-20T17:33:00;15.00;99.90
24049;DHT22;12250;50.956;4.746;2022-09-20T17:35:26;15.00;99.90
24049;DHT22;12250;50.956;4.746;2022-09-20T17:37:53;14.90;99.90
24049;DHT22;12250;50.956;4.746;2022-09-20T17:40:19;14.90;99.90
24049;DHT22;12250;50.956;4.746;2022-09-20T17:42:45;14.90;99.90
24049;DHT22;12250;50.956;4.746;2022-09-20T17:45:11;14.90;99.90
24049;DHT22;12250;50.956;4.746;2022-09-20T17:47:37;15.00;99.90
24049;DHT22;12250;50.956;4.746;2022-09-20T17:50:07;15.00;99.90
24049;DHT22;12250;50.956;4.746;2022-09-20T17:52:39;15.00;99.90
24049;DHT22;12250;50.956;4.746;2022-09-20T17:55:07;15.00;99.90
24049;DHT22;12250;50.956;4.746;2022-09-20T17:57:32;15.00;99.90
24049;DHT22;12250;50.956;4.746;2022-09-20T17:59:58;15.00;99.90
24049;DHT22;12250;50.956;4.746;2022-09-20T18:02:24;15.00;99.90
24049;DHT22;12250;50.956;4.746;2022-09-20T18:04:49;15.00;99.90
24049;DHT22;12250;50.956;4.746;2022-09-20T18:07:16;15.00;99.90
24049;DHT22;12250;50.956;4.746;2022-09-20T18:09:42;15.00;99.90
24049;DHT22;12250;50.956;4.746;2022-09-20T18:12:07;14.90;99.90
24049;DHT22;12250;50.956;4.746;2022-09-20T18:14:33;14.90;99.90
24049;DHT22;12250;50.956;4.746;2022-09-20T18:16:59;14.80;99.90
24049;DHT22;12250;50.956;4.746;2022-09-20T18:19:28;14.80;99.90
24049;DHT22;12250;50.956;4.746;2022-09-20T18:21:59;14.80;99.90
24049;DHT22;12250;50.956;4.746;2022-09-20T18:24:25;14.70;99.90
24049;DHT22;12250;50.956;4.746;2022-09-20T18:26:50;14.60;99.90
24049;DHT22;12250;50.956;4.746;2022-09-20T18:29:16;14.60;99.90
24049;DHT22;12250;50.956;4.746;2022-09-20T18:36:42;14.60;99.90
24049;DHT22;12250;50.956;4.746;2022-09-20T18:39:08;14.60;99.90
24049;DHT22;12250;50.956;4.746;2022-09-20T18:41:36;14.60;99.90
24049;DHT22;12250;50.956;4.746;2022-09-20T18:44:04;14.50;99.90
24049;DHT22;12250;50.956;4.746;2022-09-20T18:46:31;14.50;99.90
24049;DHT22;12250;50.956;4.746;2022-09-20T18:48:59;14.40;99.90
24049;DHT22;12250;50.956;4.746;2022-09-20T18:51:28;14.20;99.90
24049;DHT22;12250;50.956;4.746;2022-09-20T18:53:54;14.10;99.90
24049;DHT22;12250;50.956;4.746;2022-09-20T18:56:24;13.90;99.90
24049;DHT22;12250;50.956;4.746;2022-09-20T18:58:55;13.90;99.90
24049;DHT22;12250;50.956;4.746;2022-09-20T19:01:31;13.80;99.90
24049;DHT22;12250;50.956;4.746;2022-09-20T19:06:56;13.60;99.90
24049;DHT22;12250;50.956;4.746;2022-09-20T19:15:14;13.40;99.90
24049;DHT22;12250;50.956;4.746;2022-09-20T19:26:25;13.10;99.90
24049;DHT22;12250;50.956;4.746;2022-09-20T19:28:59;13.10;99.90
24049;DHT22;12250;50.956;4.746;2022-09-20T19:31:27;13.00;99.90
24049;DHT22;12250;50.956;4.746;2022-09-20T19:33:55;13.00;99.90
24049;DHT22;12250;50.956;4.746;2022-09-20T19:36:29;12.90;99.90
24049;DHT22;12250;50.956;4.746;2022-09-20T19:39:18;12.90;99.90
24049;DHT22;12250;50.956;4.746;2022-09-20T19:44:56;12.80;99.90
24049;DHT22;12250;50.956;4.746;2022-09-20T19:48:15;12.80;99.90
24049;DHT22;12250;50.956;4.746;2022-09-20T19:52:58;12.70;99.90
24049;DHT22;12250;50.956;4.746;2022-09-20T19:55:29;12.70;99.90
24049;DHT22;12250;50.956;4.746;2022-09-20T19:57:55;12.60;99.90
24049;DHT22;12250;50.956;4.746;2022-09-20T20:00:21;12.60;99.90
24049;DHT22;12250;50.956;4.746;2022-09-20T20:02:47;12.50;99.90
24049;DHT22;12250;50.956;4.746;2022-09-20T20:05:18;12.50;99.90
24049;DHT22;12250;50.956;4.746;2022-09-20T20:13:30;12.40;99.90
24049;DHT22;12250;50.956;4.746;2022-09-20T20:16:20;12.40;99.90
24049;DHT22;12250;50.956;4.746;2022-09-20T20:19:10;12.20;99.90
24049;DHT22;12250;50.956;4.746;2022-09-20T20:24:40;12.10;99.90
24049;DHT22;12250;50.956;4.746;2022-09-20T20:27:07;12.00;99.90
24049;DHT22;12250;50.956;4.746;2022-09-20T20:29:33;11.90;99.90
24049;DHT22;12250;50.956;4.746;2022-09-20T20:31:58;11.80;99.90
24049;DHT22;12250;50.956;4.746;2022-09-20T20:34:24;11.70;99.90
24049;DHT22;12250;50.956;4.746;2022-09-20T20:36:51;11.60;99.90
24049;DHT22;12250;50.956;4.746;2022-09-20T20:39:27;11.60;99.90
24049;DHT22;12250;50.956;4.746;2022-09-20T20:41:54;11.40;99.90
24049;DHT22;12250;50.956;4.746;2022-09-20T20:44:21;11.40;99.90
24049;DHT22;12250;50.956;4.746;2022-09-20T20:46:47;11.40;99.90
24049;DHT22;12250;50.956;4.746;2022-09-20T20:49:13;11.40;99.90
24049;DHT22;12250;50.956;4.746;2022-09-20T20:51:39;11.30;99.90
24049;DHT22;12250;50.956;4.746;2022-09-20T20:54:05;11.30;99.90
24049;DHT22;12250;50.956;4.746;2022-09-20T20:56:31;11.20;99.90
24049;DHT22;12250;50.956;4.746;2022-09-20T20:58:57;11.10;99.90
24049;DHT22;12250;50.956;4.746;2022-09-20T21:01:26;11.10;99.90
24049;DHT22;12250;50.956;4.746;2022-09-20T21:03:54;11.00;99.90
24049;DHT22;12250;50.956;4.746;2022-09-20T21:06:22;11.00;99.90
24049;DHT22;12250;50.956;4.746;2022-09-20T21:08:49;10.90;99.90
24049;DHT22;12250;50.956;4.746;2022-09-20T21:11:36;10.90;99.90
24049;DHT22;12250;50.956;4.746;2022-09-20T21:14:03;10.80;99.90
24049;DHT22;12250;50.956;4.746;2022-09-20T21:16:33;10.80;99.90
24049;DHT22;12250;50.956;4.746;2022-09-20T21:19:02;10.80;99.90
24049;DHT22;12250;50.956;4.746;2022-09-20T21:23:57;10.60;99.90
24049;DHT22;12250;50.956;4.746;2022-09-20T21:26:24;10.60;99.90
24049;DHT22;12250;50.956;4.746;2022-09-20T21:28:52;10.60;99.90
24049;DHT22;12250;50.956;4.746;2022-09-20T21:31:19;10.50;99.90
24049;DHT22;12250;50.956;4.746;2022-09-20T21:33:46;10.50;99.90
24049;DHT22;12250;50.956;4.746;2022-09-20T21:36:14;10.40;99.90
24049;DHT22;12250;50.956;4.746;2022-09-20T21:38:41;10.40;99.90